createdAt,value
2023-02-18T00:01:08.095Z,11.68
2023-02-18T00:03:34.751Z,11.68
2023-02-18T00:06:01.387Z,11.65
2023-02-18T00:08:28.020Z,11.67
2023-02-18T00:10:54.652Z,11.69
2023-02-18T00:13:21.282Z,11.65
2023-02-18T00:15:48.179Z,11.69
2023-02-18T00:18:14.848Z,11.67
2023-02-18T00:20:41.470Z,11.68
2023-02-18T00:23:08.119Z,11.67
2023-02-18T00:25:34.753Z,11.69
2023-02-18T00:28:01.393Z,11.68
2023-02-18T00:30:28.048Z,11.69
2023-02-18T00:32:54.873Z,11.68
2023-02-18T00:35:21.480Z,11.68
2023-02-18T00:37:48.087Z,11.65
2023-02-18T00:40:14.763Z,11.64
2023-02-18T00:42:41.366Z,11.65
2023-02-18T00:45:07.976Z,11.68
2023-02-18T00:47:34.605Z,11.68
2023-02-18T00:50:01.814Z,11.67
2023-02-18T00:52:28.442Z,11.67
2023-02-18T00:54:55.069Z,11.67
2023-02-18T00:57:21.712Z,11.67
2023-02-18T00:59:48.345Z,11.64
2023-02-18T01:02:14.994Z,11.67
2023-02-18T01:04:41.892Z,11.65
2023-02-18T01:07:08.550Z,11.67
2023-02-18T01:09:38.551Z,11.65
2023-02-18T01:12:05.198Z,11.68
2023-02-18T01:14:31.853Z,11.69
2023-02-18T01:16:58.509Z,11.65
2023-02-18T01:19:25.129Z,11.67
2023-02-18T01:21:51.776Z,11.67
2023-02-18T01:24:18.404Z,11.65
2023-02-18T01:26:45.056Z,11.67
2023-02-18T01:29:11.685Z,11.65
2023-02-18T01:31:38.425Z,11.67
2023-02-18T01:34:05.126Z,11.65
2023-02-18T01:36:31.744Z,11.65
2023-02-18T01:38:58.367Z,11.65
2023-02-18T01:41:25.006Z,11.64
2023-02-18T01:43:51.833Z,11.64
2023-02-18T01:46:18.527Z,11.64
2023-02-18T01:48:45.439Z,11.64
2023-02-18T01:51:12.092Z,11.64
2023-02-18T01:53:38.711Z,11.64
2023-02-18T01:56:05.433Z,11.64
2023-02-18T01:58:32.167Z,11.64
2023-02-18T02:00:58.813Z,11.67
2023-02-18T02:03:26.243Z,11.64
2023-02-18T02:05:52.844Z,11.67
2023-02-18T02:08:19.488Z,11.65
2023-02-18T02:10:46.129Z,11.64
2023-02-18T02:13:12.760Z,11.64
2023-02-18T02:15:39.392Z,11.64
2023-02-18T02:18:06.256Z,11.64
2023-02-18T02:20:32.893Z,11.62
2023-02-18T02:22:59.745Z,11.64
2023-02-18T02:25:26.379Z,11.65
2023-02-18T02:27:53.051Z,11.64
2023-02-18T02:30:19.745Z,11.62
2023-02-18T02:32:46.421Z,11.64
2023-02-18T02:35:13.072Z,11.64
2023-02-18T02:37:39.705Z,11.61
2023-02-18T02:40:07.563Z,11.65
2023-02-18T02:42:34.195Z,11.61
2023-02-18T02:45:00.836Z,11.64
2023-02-18T02:47:27.480Z,11.64
2023-02-18T02:49:54.260Z,11.62
2023-02-18T02:52:20.899Z,11.64
2023-02-18T02:54:47.557Z,11.62
2023-02-18T02:57:14.219Z,11.65
2023-02-18T02:59:41.078Z,11.61
2023-02-18T03:02:07.730Z,11.65
2023-02-18T03:04:34.364Z,11.62
2023-02-18T03:07:00.997Z,11.59
2023-02-18T03:09:27.641Z,11.62
2023-02-18T03:11:54.290Z,11.64
2023-02-18T03:14:20.945Z,11.61
2023-02-18T03:16:47.612Z,11.64
2023-02-18T03:19:14.466Z,11.64
2023-02-18T03:21:41.336Z,11.65
2023-02-18T03:24:07.972Z,11.64
2023-02-18T03:26:34.828Z,11.62
2023-02-18T03:29:01.457Z,11.62
2023-02-18T03:31:28.186Z,11.64
2023-02-18T03:33:54.863Z,11.62
2023-02-18T03:36:21.523Z,11.62
2023-02-18T03:38:48.160Z,11.61
2023-02-18T03:41:15.031Z,11.62
2023-02-18T03:43:41.670Z,11.64
2023-02-18T03:46:08.731Z,11.61
2023-02-18T03:48:35.816Z,11.64
2023-02-18T03:51:02.453Z,11.61
2023-02-18T03:53:29.119Z,11.65
2023-02-18T03:55:55.965Z,11.61
2023-02-18T03:58:22.594Z,11.65
2023-02-18T04:00:49.239Z,11.64
2023-02-18T04:03:16.088Z,11.61
2023-02-18T04:05:42.714Z,11.61
2023-02-18T04:08:09.343Z,11.61
2023-02-18T04:10:35.985Z,11.64
2023-02-18T04:13:02.630Z,11.64
2023-02-18T04:15:29.268Z,11.61
2023-02-18T04:17:55.939Z,11.64
2023-02-18T04:20:22.622Z,11.61
2023-02-18T04:22:49.286Z,11.64
2023-02-18T04:25:15.930Z,11.64
2023-02-18T04:27:42.562Z,11.61
2023-02-18T04:30:09.675Z,11.65
2023-02-18T04:32:36.352Z,11.62
2023-02-18T04:35:02.988Z,11.62
2023-02-18T04:37:29.630Z,11.59
2023-02-18T04:39:56.269Z,11.61
2023-02-18T04:42:22.911Z,11.61
2023-02-18T04:44:49.541Z,11.58
2023-02-18T04:47:16.175Z,11.62
2023-02-18T04:49:42.835Z,11.59
2023-02-18T04:52:09.679Z,11.61
2023-02-18T04:54:36.382Z,11.58
2023-02-18T04:57:03.017Z,11.57
2023-02-18T04:59:29.649Z,11.61
2023-02-18T05:01:59.404Z,11.61
2023-02-18T05:04:26.116Z,11.58
2023-02-18T05:06:53.033Z,11.59
2023-02-18T05:09:19.897Z,11.61
2023-02-18T05:11:46.545Z,11.62
2023-02-18T05:14:13.179Z,11.59
2023-02-18T05:16:39.816Z,11.61
2023-02-18T05:19:06.473Z,11.61
2023-02-18T05:21:33.105Z,11.62
2023-02-18T05:24:00.720Z,11.59
2023-02-18T05:26:27.356Z,11.61
2023-02-18T05:28:53.986Z,11.57
2023-02-18T05:31:20.678Z,11.62
2023-02-18T05:33:47.385Z,11.61
2023-02-18T05:36:14.026Z,11.62
2023-02-18T05:38:40.869Z,11.61
2023-02-18T05:41:07.513Z,11.57
2023-02-18T05:43:34.363Z,11.59
2023-02-18T05:46:01.032Z,11.61
2023-02-18T05:48:27.876Z,11.59
2023-02-18T05:50:54.511Z,11.59
2023-02-18T05:53:21.146Z,11.59
2023-02-18T05:55:47.792Z,11.61
2023-02-18T05:58:14.424Z,11.59
2023-02-18T06:00:41.071Z,11.59
2023-02-18T06:03:07.698Z,11.59
2023-02-18T06:05:34.558Z,11.59
2023-02-18T06:08:01.255Z,11.57
2023-02-18T06:10:28.119Z,11.59
2023-02-18T06:12:54.760Z,11.59
2023-02-18T06:15:21.609Z,11.61
2023-02-18T06:17:48.241Z,11.59
2023-02-18T06:20:14.863Z,11.57
2023-02-18T06:22:41.493Z,11.58
2023-02-18T06:25:08.123Z,11.59
2023-02-18T06:27:34.764Z,11.58
2023-02-18T06:30:02.421Z,11.58
2023-02-18T06:32:29.078Z,11.57
2023-02-18T06:34:55.715Z,11.58
2023-02-18T06:37:22.359Z,11.57
2023-02-18T06:39:49.945Z,11.61
2023-02-18T06:42:16.587Z,11.58
2023-02-18T06:44:43.231Z,11.61
2023-02-18T06:47:09.855Z,11.59
2023-02-18T06:49:36.484Z,11.57
2023-02-18T06:52:03.295Z,11.58
2023-02-18T06:54:29.920Z,11.58
2023-02-18T06:56:56.554Z,11.57
2023-02-18T06:59:23.179Z,11.58
2023-02-18T07:01:49.815Z,11.58
2023-02-18T07:04:16.452Z,11.59
2023-02-18T07:06:44.019Z,11.57
2023-02-18T07:09:10.643Z,11.58
2023-02-18T07:11:37.292Z,11.58
2023-02-18T07:14:03.928Z,11.58
2023-02-18T07:16:30.610Z,11.58
2023-02-18T07:18:57.267Z,11.59
2023-02-18T07:21:23.958Z,11.59
2023-02-18T07:23:50.598Z,11.58
2023-02-18T07:26:17.470Z,11.59
2023-02-18T07:28:44.123Z,11.59
2023-02-18T07:31:10.940Z,11.59
2023-02-18T07:33:37.705Z,11.58
2023-02-18T07:36:04.561Z,11.61
2023-02-18T07:38:31.215Z,11.57
2023-02-18T07:40:57.866Z,11.58
2023-02-18T07:43:27.471Z,11.59
2023-02-18T07:45:54.183Z,11.58
2023-02-18T07:48:21.039Z,11.58
2023-02-18T07:50:47.892Z,11.59
2023-02-18T07:53:14.538Z,11.59
2023-02-18T07:55:41.174Z,11.57
2023-02-18T07:58:07.809Z,11.58
2023-02-18T08:00:34.450Z,11.61
2023-02-18T08:03:01.302Z,11.59
2023-02-18T08:05:27.939Z,11.59
2023-02-18T08:07:54.577Z,11.61
2023-02-18T08:10:21.212Z,11.62
2023-02-18T08:12:47.851Z,11.59
2023-02-18T08:15:14.489Z,11.62
2023-02-18T08:17:41.129Z,11.58
2023-02-18T08:20:07.756Z,11.59
2023-02-18T08:22:34.383Z,11.59
2023-02-18T08:25:01.029Z,11.61
2023-02-18T08:27:27.683Z,11.58
2023-02-18T08:29:54.318Z,11.59
2023-02-18T08:32:20.959Z,11.59
2023-02-18T08:34:47.612Z,11.62
2023-02-18T08:37:14.245Z,11.61
2023-02-18T08:39:41.087Z,11.64
2023-02-18T08:42:07.726Z,11.59
2023-02-18T08:44:34.367Z,11.58
2023-02-18T08:47:01.679Z,11.59
2023-02-18T08:49:28.344Z,11.59
2023-02-18T08:51:55.700Z,11.62
2023-02-18T08:54:22.333Z,11.61
2023-02-18T08:56:49.021Z,11.59
2023-02-18T08:59:15.681Z,11.61
2023-02-18T09:01:42.396Z,11.59
2023-02-18T09:04:09.146Z,11.59
2023-02-18T09:06:35.808Z,11.59
2023-02-18T09:09:02.445Z,11.62
2023-02-18T09:11:29.098Z,11.59
2023-02-18T09:13:55.733Z,11.59
2023-02-18T09:16:23.074Z,11.61
2023-02-18T09:18:51.273Z,11.59
2023-02-18T09:21:17.899Z,11.62
2023-02-18T09:23:44.744Z,11.58
2023-02-18T09:26:11.388Z,11.58
2023-02-18T09:28:38.017Z,11.58
2023-02-18T09:31:04.748Z,11.59
2023-02-18T09:33:31.441Z,11.61
2023-02-18T09:35:58.076Z,11.61
2023-02-18T09:38:24.717Z,11.59
2023-02-18T09:40:51.404Z,11.61
2023-02-18T09:43:18.270Z,11.62
2023-02-18T09:45:44.900Z,11.62
2023-02-18T09:48:11.530Z,11.59
2023-02-18T09:50:38.180Z,11.59
2023-02-18T09:53:05.061Z,11.59
2023-02-18T09:55:31.691Z,11.61
2023-02-18T09:57:58.311Z,11.59
2023-02-18T10:00:24.942Z,11.61
2023-02-18T10:02:51.573Z,11.61
2023-02-18T10:05:18.208Z,11.64
2023-02-18T10:07:44.840Z,11.62
2023-02-18T10:10:11.486Z,11.61
2023-02-18T10:12:38.105Z,11.62
2023-02-18T10:15:04.742Z,11.62
2023-02-18T10:17:31.405Z,11.65
2023-02-18T10:19:58.275Z,11.62
2023-02-18T10:22:24.906Z,11.61
2023-02-18T10:24:51.548Z,11.65
2023-02-18T10:27:18.172Z,11.64
2023-02-18T10:29:44.809Z,11.65
2023-02-18T10:32:11.695Z,11.64
2023-02-18T10:34:38.356Z,11.64
2023-02-18T10:37:04.990Z,11.64
2023-02-18T10:39:31.633Z,11.64
2023-02-18T10:41:58.268Z,11.67
2023-02-18T10:44:24.900Z,11.65
2023-02-18T10:46:51.609Z,11.68
2023-02-18T10:49:18.268Z,11.67
2023-02-18T10:51:45.041Z,11.69
2023-02-18T10:54:11.688Z,11.68
2023-02-18T10:56:38.362Z,11.71
2023-02-18T10:59:05.277Z,11.72
2023-02-18T11:01:31.930Z,11.72
2023-02-18T11:03:58.583Z,11.74
2023-02-18T11:06:25.233Z,11.74
2023-02-18T11:08:51.881Z,11.69
2023-02-18T11:11:18.524Z,11.71
2023-02-18T11:13:45.161Z,11.72
2023-02-18T11:16:11.814Z,11.71
2023-02-18T11:18:38.476Z,11.72
2023-02-18T11:21:05.120Z,11.72
2023-02-18T11:23:31.758Z,11.75
2023-02-18T11:25:58.393Z,11.75
2023-02-18T11:28:25.041Z,11.75
2023-02-18T11:30:51.681Z,11.71
2023-02-18T11:33:18.352Z,11.75
2023-02-18T11:35:44.990Z,11.72
2023-02-18T11:38:11.617Z,11.75
2023-02-18T11:40:38.305Z,11.75
2023-02-18T11:43:04.939Z,11.74
2023-02-18T11:45:31.562Z,11.74
2023-02-18T11:47:58.191Z,11.75
2023-02-18T11:50:24.835Z,11.77
2023-02-18T11:52:51.471Z,11.78
2023-02-18T11:55:18.106Z,11.75
2023-02-18T11:57:44.750Z,11.78
2023-02-18T12:00:11.376Z,11.74
2023-02-18T12:02:38.011Z,11.78
2023-02-18T12:05:04.679Z,11.79
2023-02-18T12:07:31.340Z,11.79
2023-02-18T12:09:57.983Z,11.83
2023-02-18T12:12:24.619Z,11.81
2023-02-18T12:14:51.323Z,11.83
2023-02-18T12:17:18.069Z,11.82
2023-02-18T12:19:44.768Z,11.81
2023-02-18T12:22:11.401Z,11.85
2023-02-18T12:24:38.062Z,11.79
2023-02-18T12:27:04.691Z,11.85
2023-02-18T12:29:31.323Z,11.82
2023-02-18T12:31:57.987Z,11.83
2023-02-18T12:34:24.653Z,11.88
2023-02-18T12:36:51.288Z,11.82
2023-02-18T12:39:18.153Z,11.86
2023-02-18T12:41:44.800Z,11.85
2023-02-18T12:44:11.644Z,11.85
2023-02-18T12:46:38.272Z,11.88
2023-02-18T12:49:04.903Z,11.88
2023-02-18T12:51:31.553Z,11.91
2023-02-18T12:53:58.198Z,11.89
2023-02-18T12:56:25.052Z,11.88
2023-02-18T12:58:51.676Z,11.86
2023-02-18T13:01:18.347Z,11.86
2023-02-18T13:03:47.054Z,11.86
2023-02-18T13:06:13.864Z,11.86
2023-02-18T13:08:40.748Z,11.86
2023-02-18T13:11:07.377Z,11.83
2023-02-18T13:13:34.011Z,11.88
2023-02-18T13:16:00.659Z,11.86
2023-02-18T13:18:27.284Z,11.82
2023-02-18T13:20:53.912Z,11.85
2023-02-18T13:23:20.572Z,11.86
2023-02-18T13:25:47.222Z,11.85
2023-02-18T13:28:13.868Z,11.86
2023-02-18T13:30:40.604Z,11.83
2023-02-18T13:33:07.365Z,11.83
2023-02-18T13:35:34.008Z,11.85
2023-02-18T13:38:00.636Z,11.86
2023-02-18T13:40:27.275Z,11.88
2023-02-18T13:42:53.911Z,11.85
2023-02-18T13:45:20.768Z,11.86
2023-02-18T13:47:47.397Z,11.85
2023-02-18T13:50:14.044Z,11.85
2023-02-18T13:52:40.686Z,11.89
2023-02-18T13:55:07.308Z,11.86
2023-02-18T13:57:33.932Z,11.83
2023-02-18T14:00:00.569Z,11.83
2023-02-18T14:02:27.311Z,11.85
2023-02-18T14:04:53.987Z,11.86
2023-02-18T14:07:20.630Z,11.85
2023-02-18T14:09:47.480Z,11.85
2023-02-18T14:12:14.342Z,11.83
2023-02-18T14:14:40.987Z,11.82
2023-02-18T14:17:07.628Z,11.86
2023-02-18T14:19:34.265Z,11.83
2023-02-18T14:22:00.903Z,11.85
2023-02-18T14:24:27.539Z,11.88
2023-02-18T14:26:54.178Z,11.81
2023-02-18T14:29:21.353Z,11.85
2023-02-18T14:31:48.041Z,11.85
2023-02-18T14:34:14.710Z,11.85
2023-02-18T14:36:41.348Z,11.88
2023-02-18T14:39:07.981Z,11.85
2023-02-18T14:41:34.837Z,11.89
2023-02-18T14:44:01.477Z,11.88
2023-02-18T14:46:28.118Z,11.85
2023-02-18T14:48:54.777Z,11.86
2023-02-18T14:51:21.415Z,11.85
2023-02-18T14:53:48.043Z,11.85
2023-02-18T14:56:14.677Z,11.88
2023-02-18T14:58:41.332Z,11.85
2023-02-18T15:01:08.012Z,11.88
2023-02-18T15:03:34.674Z,11.86
2023-02-18T15:06:01.319Z,11.86
2023-02-18T15:08:27.957Z,11.83
2023-02-18T15:10:54.596Z,11.83
2023-02-18T15:13:21.243Z,11.85
2023-02-18T15:15:47.915Z,11.83
2023-02-18T15:18:14.565Z,11.86
2023-02-18T15:20:41.191Z,11.89
2023-02-18T15:23:07.825Z,11.91
2023-02-18T15:25:34.462Z,11.99
2023-02-18T15:28:01.101Z,11.91
2023-02-18T15:30:28.023Z,11.91
2023-02-18T15:32:54.680Z,11.88
2023-02-18T15:35:21.329Z,11.92
2023-02-18T15:37:47.976Z,11.88
2023-02-18T15:40:14.653Z,11.86
2023-02-18T15:42:41.308Z,11.89
2023-02-18T15:45:07.945Z,11.86
2023-02-18T15:47:34.579Z,11.91
2023-02-18T15:50:01.385Z,11.88
2023-02-18T15:52:28.078Z,11.85
2023-02-18T15:54:54.726Z,11.88
2023-02-18T15:57:21.367Z,11.85
2023-02-18T15:59:48.001Z,11.88
2023-02-18T16:02:14.637Z,11.86
2023-02-18T16:04:41.290Z,11.86
2023-02-18T16:07:07.937Z,11.86
2023-02-18T16:09:34.657Z,11.85
2023-02-18T16:12:01.300Z,11.86
2023-02-18T16:14:27.934Z,11.85
2023-02-18T16:16:54.562Z,11.88
2023-02-18T16:19:21.212Z,11.86
2023-02-18T16:21:47.846Z,11.85
2023-02-18T16:24:14.482Z,11.83
2023-02-18T16:26:41.126Z,11.82
2023-02-18T16:29:07.760Z,11.86
2023-02-18T16:31:34.485Z,11.83
2023-02-18T16:34:01.249Z,11.85
2023-02-18T16:36:27.893Z,11.85
2023-02-18T16:38:54.539Z,11.82
2023-02-18T16:41:21.184Z,11.83
2023-02-18T16:43:47.811Z,11.81
2023-02-18T16:46:14.498Z,11.82
2023-02-18T16:48:41.161Z,11.81
2023-02-18T16:51:07.808Z,11.81
2023-02-18T16:53:34.679Z,11.81
2023-02-18T16:56:01.308Z,11.82
2023-02-18T16:58:27.939Z,11.81
2023-02-18T17:00:54.612Z,11.78
2023-02-18T17:03:21.257Z,11.81
2023-02-18T17:05:47.942Z,11.79
2023-02-18T17:08:14.616Z,11.77
2023-02-18T17:10:41.496Z,11.79
2023-02-18T17:13:08.139Z,11.79
2023-02-18T17:15:34.774Z,11.79
2023-02-18T17:18:01.412Z,11.77
2023-02-18T17:20:28.046Z,11.78
2023-02-18T17:22:54.702Z,11.78
2023-02-18T17:25:21.337Z,11.77
2023-02-18T17:27:48.186Z,11.79
2023-02-18T17:30:14.923Z,11.74
2023-02-18T17:32:41.589Z,11.77
2023-02-18T17:35:08.217Z,11.78
2023-02-18T17:37:35.068Z,11.75
2023-02-18T17:40:01.728Z,11.77
2023-02-18T17:42:28.368Z,11.75
2023-02-18T17:44:55.008Z,11.77
2023-02-18T17:47:21.648Z,11.78
2023-02-18T17:49:48.276Z,11.77
2023-02-18T17:52:14.896Z,11.75
2023-02-18T17:54:41.760Z,11.71
2023-02-18T17:57:08.412Z,11.75
2023-02-18T17:59:35.042Z,11.75
2023-02-18T18:02:01.669Z,11.77
2023-02-18T18:04:28.315Z,11.72
2023-02-18T18:06:54.983Z,11.74
2023-02-18T18:09:21.618Z,11.74
2023-02-18T18:11:48.266Z,11.74
2023-02-18T18:14:15.566Z,11.74
2023-02-18T18:16:42.263Z,11.72
2023-02-18T18:19:08.933Z,11.72
2023-02-18T18:21:35.606Z,11.74
2023-02-18T18:24:03.108Z,11.72
2023-02-18T18:26:29.761Z,11.74
2023-02-18T18:28:56.607Z,11.72
2023-02-18T18:31:23.342Z,11.72
2023-02-18T18:33:50.061Z,11.74
2023-02-18T18:36:16.701Z,11.69
2023-02-18T18:38:43.350Z,11.71
2023-02-18T18:41:10.197Z,11.69
2023-02-18T18:43:37.021Z,11.74
2023-02-18T18:46:03.680Z,11.71
2023-02-18T18:48:30.371Z,11.71
2023-02-18T18:50:59.635Z,11.74
2023-02-18T18:53:26.280Z,11.71
2023-02-18T18:55:52.906Z,11.69
2023-02-18T18:58:19.748Z,11.69
2023-02-18T19:00:47.233Z,11.72
2023-02-18T19:03:13.903Z,11.68
2023-02-18T19:05:40.769Z,11.72
2023-02-18T19:08:07.615Z,11.69
2023-02-18T19:10:34.239Z,11.71
2023-02-18T19:13:01.081Z,11.72
2023-02-18T19:15:27.753Z,11.71
2023-02-18T19:17:54.407Z,11.71
2023-02-18T19:20:21.055Z,11.71
2023-02-18T19:22:47.683Z,11.71
2023-02-18T19:25:14.328Z,11.68
2023-02-18T19:27:40.957Z,11.69
2023-02-18T19:30:07.982Z,11.69
2023-02-18T19:32:34.645Z,11.69
2023-02-18T19:35:01.280Z,11.67
2023-02-18T19:37:27.917Z,11.65
2023-02-18T19:39:54.570Z,11.69
2023-02-18T19:42:21.215Z,11.68
2023-02-18T19:44:47.851Z,11.68
2023-02-18T19:47:14.485Z,11.69
2023-02-18T19:49:41.133Z,11.68
2023-02-18T19:52:07.776Z,11.71
2023-02-18T19:54:34.415Z,11.71
2023-02-18T19:57:01.069Z,11.68
2023-02-18T19:59:27.724Z,11.68
2023-02-18T20:01:57.217Z,11.68
2023-02-18T20:04:24.089Z,11.68
2023-02-18T20:06:50.730Z,11.67
2023-02-18T20:09:17.365Z,11.69
2023-02-18T20:11:44.002Z,11.67
2023-02-18T20:14:10.641Z,11.69
2023-02-18T20:16:37.286Z,11.69
2023-02-18T20:19:03.965Z,11.67
2023-02-18T20:21:30.612Z,11.67
2023-02-18T20:23:57.249Z,11.67
2023-02-18T20:26:24.113Z,11.67
2023-02-18T20:28:50.752Z,11.64
2023-02-18T20:31:17.742Z,11.65
2023-02-18T20:33:44.441Z,11.64
2023-02-18T20:36:11.280Z,11.67
2023-02-18T20:38:38.171Z,11.68
2023-02-18T20:41:04.816Z,11.68
2023-02-18T20:43:31.454Z,11.68
2023-02-18T20:45:58.096Z,11.65
2023-02-18T20:48:24.939Z,11.67
2023-02-18T20:50:51.584Z,11.67
2023-02-18T20:53:18.425Z,11.65
2023-02-18T20:55:45.059Z,11.65
2023-02-18T20:58:11.906Z,11.65
2023-02-18T21:00:38.540Z,11.67
2023-02-18T21:03:05.629Z,11.65
2023-02-18T21:05:32.292Z,11.62
2023-02-18T21:07:58.938Z,11.64
2023-02-18T21:10:25.578Z,11.65
2023-02-18T21:12:52.207Z,11.65
2023-02-18T21:15:18.840Z,11.64
2023-02-18T21:17:45.501Z,11.64
2023-02-18T21:20:12.349Z,11.62
2023-02-18T21:22:38.991Z,11.68
2023-02-18T21:25:05.843Z,11.67
2023-02-18T21:27:32.433Z,11.65
2023-02-18T21:29:59.116Z,11.65
2023-02-18T21:32:25.878Z,11.64
2023-02-18T21:37:39.625Z,11.64
2023-02-18T21:40:06.279Z,11.67
2023-02-18T21:42:32.942Z,11.64
2023-02-18T21:44:59.567Z,11.62
2023-02-18T21:47:26.210Z,11.64
2023-02-18T21:49:52.858Z,11.67
2023-02-18T21:52:19.516Z,11.64
2023-02-18T21:54:46.165Z,11.64
2023-02-18T21:57:12.833Z,11.62
2023-02-18T21:59:39.490Z,11.65
2023-02-18T22:02:06.164Z,11.67
2023-02-18T22:04:33.025Z,11.64
2023-02-18T22:06:59.653Z,11.64
2023-02-18T22:09:26.297Z,11.67
2023-02-18T22:11:52.965Z,11.64
2023-02-18T22:14:19.607Z,11.65
2023-02-18T22:16:46.256Z,11.65
2023-02-18T22:19:13.117Z,11.64
2023-02-18T22:21:39.754Z,11.67
2023-02-18T22:24:07.940Z,11.64
2023-02-18T22:26:34.577Z,11.65
2023-02-18T22:29:01.217Z,11.62
2023-02-18T22:31:27.981Z,11.64
2023-02-18T22:33:57.751Z,11.64
2023-02-18T22:36:24.605Z,11.65
2023-02-18T22:38:51.244Z,11.64
2023-02-18T22:41:17.893Z,11.65
2023-02-18T22:43:44.542Z,11.64
2023-02-18T22:46:11.311Z,11.65
2023-02-18T22:48:37.961Z,11.64
2023-02-18T22:51:04.585Z,11.64
2023-02-18T22:53:31.346Z,11.62
2023-02-18T22:55:57.989Z,11.61
2023-02-18T22:58:24.632Z,11.64
2023-02-18T23:00:51.278Z,11.65
2023-02-18T23:03:17.916Z,11.64
2023-02-18T23:05:44.559Z,11.64
2023-02-18T23:08:11.197Z,11.64
2023-02-18T23:10:37.828Z,11.65
2023-02-18T23:13:04.676Z,11.59
2023-02-18T23:15:31.317Z,11.65
2023-02-18T23:17:57.957Z,11.62
2023-02-18T23:20:24.594Z,11.62
2023-02-18T23:22:51.224Z,11.65
2023-02-18T23:25:17.868Z,11.62
2023-02-18T23:27:44.497Z,11.64
2023-02-18T23:30:11.159Z,11.61
2023-02-18T23:32:39.306Z,11.64
2023-02-18T23:35:06.001Z,11.62
2023-02-18T23:37:32.641Z,11.61
2023-02-18T23:39:59.273Z,11.64
2023-02-18T23:42:25.911Z,11.61
2023-02-18T23:44:52.536Z,11.64
2023-02-18T23:47:19.162Z,11.65
2023-02-18T23:49:45.811Z,11.62
2023-02-18T23:52:12.452Z,11.64
2023-02-18T23:54:39.091Z,11.64
2023-02-18T23:57:05.941Z,11.65
2023-02-18T23:59:32.584Z,11.64
